Terminal Aerodrome Forecast
Issued by NWS

Home | Current Version | Previous Version | Text Only | Print | Product List | Glossary Off
Versions: 1 2 3 4 5 6 7 8 9 10 11 12 13 14 15 16 17 18 19 20

337
FTUS43 KICT 171720
TAFCNU
TAF
KCNU 171720Z 1718/1818 17013KT P6SM BKN250
     FM172000 16017KT P6SM SCT120 BKN250
     FM180300 17017G26KT P6SM SKC
     FM180800 29022G30KT P6SM SKC=

USA.gov is the U.S. government's official web portal to all federal, state and local government web resources and services.